createdAt,value
2022-11-20T00:01:34.889Z,23.55
2022-11-20T00:04:03.637Z,25.55
2022-11-20T00:06:32.471Z,27.80
2022-11-20T00:09:02.282Z,24.98
2022-11-20T00:11:32.694Z,21.02
2022-11-20T00:14:02.016Z,26.38
2022-11-20T00:16:32.311Z,22.02
2022-11-20T00:19:00.658Z,26.88
2022-11-20T00:21:29.878Z,27.85
2022-11-20T00:23:58.934Z,27.60
2022-11-20T00:26:27.973Z,26.85
2022-11-20T00:28:58.650Z,29.00
2022-11-20T00:31:27.431Z,26.50
2022-11-20T00:33:55.835Z,23.30
2022-11-20T00:36:25.021Z,25.02
2022-11-20T00:38:54.131Z,27.00
2022-11-20T00:41:22.795Z,24.83
2022-11-20T00:43:51.209Z,31.45
2022-11-20T00:46:21.701Z,30.17
2022-11-20T00:48:50.303Z,28.33
2022-11-20T00:51:20.725Z,27.77
2022-11-20T00:53:49.438Z,27.55
2022-11-20T00:56:19.265Z,25.48
2022-11-20T00:58:48.316Z,25.80
2022-11-20T01:01:17.484Z,26.45
2022-11-20T01:03:47.904Z,23.15
2022-11-20T01:06:17.377Z,24.27
2022-11-20T01:08:46.050Z,27.77
2022-11-20T01:11:15.718Z,28.65
2022-11-20T01:13:44.441Z,26.58
2022-11-20T01:16:13.589Z,24.73
2022-11-20T01:18:43.365Z,28.20
2022-11-20T01:21:13.651Z,27.05
2022-11-20T01:23:43.223Z,26.05
2022-11-20T01:26:12.985Z,22.55
2022-11-20T01:28:41.834Z,23.98
2022-11-20T01:31:14.411Z,23.75
2022-11-20T01:33:42.928Z,25.15
2022-11-20T01:36:13.087Z,27.58
2022-11-20T01:38:41.934Z,29.50
2022-11-20T01:41:10.640Z,24.52
2022-11-20T01:43:38.064Z,24.90
2022-11-20T01:46:16.750Z,26.80
2022-11-20T01:48:48.973Z,27.73
2022-11-20T01:51:21.761Z,26.73
2022-11-20T01:53:51.055Z,28.25
2022-11-20T01:56:19.711Z,26.92
2022-11-20T01:58:50.365Z,30.77
2022-11-20T02:01:18.841Z,24.63
2022-11-20T02:03:47.266Z,26.65
2022-11-20T02:06:19.657Z,25.00
2022-11-20T02:08:49.302Z,26.00
2022-11-20T02:11:17.613Z,27.83
2022-11-20T02:13:45.006Z,30.83
2022-11-20T02:16:15.617Z,28.75
2022-11-20T02:18:44.432Z,25.90
2022-11-20T02:21:17.646Z,26.85
2022-11-20T02:23:55.895Z,29.33
2022-11-20T02:26:24.990Z,26.38
2022-11-20T02:28:53.422Z,30.27
2022-11-20T02:31:21.730Z,27.83
2022-11-20T02:33:50.056Z,31.30
2022-11-20T02:36:18.911Z,33.83
2022-11-20T02:38:47.302Z,32.60
2022-11-20T02:41:16.930Z,30.20
2022-11-20T02:43:45.297Z,33.65
2022-11-20T02:46:13.584Z,28.42
2022-11-20T02:48:41.881Z,27.98
2022-11-20T02:51:11.316Z,28.10
2022-11-20T02:53:39.603Z,30.77
2022-11-20T02:56:08.505Z,26.67
2022-11-20T02:58:38.180Z,27.02
2022-11-20T03:01:06.751Z,28.38
2022-11-20T03:03:35.172Z,28.25
2022-11-20T03:06:03.521Z,28.65
2022-11-20T03:08:31.876Z,25.40
2022-11-20T03:11:04.351Z,29.40
2022-11-20T03:13:32.660Z,28.52
2022-11-20T03:16:06.969Z,27.15
2022-11-20T03:18:35.293Z,27.75
2022-11-20T03:21:03.596Z,28.77
2022-11-20T03:23:33.074Z,27.10
2022-11-20T03:26:14.980Z,25.73
2022-11-20T03:28:43.639Z,26.27
2022-11-20T03:31:14.147Z,27.48
2022-11-20T03:33:43.131Z,27.02
2022-11-20T03:36:12.882Z,25.27
2022-11-20T03:38:41.206Z,25.75
2022-11-20T03:41:10.094Z,30.73
2022-11-20T03:43:38.876Z,28.33
2022-11-20T03:46:07.995Z,26.30
2022-11-20T03:48:37.649Z,29.30
2022-11-20T03:51:09.480Z,26.85
2022-11-20T03:53:37.902Z,27.83
2022-11-20T03:56:06.532Z,27.05
2022-11-20T03:58:35.098Z,26.25
2022-11-20T04:01:07.237Z,26.15
2022-11-20T04:03:35.571Z,26.23
2022-11-20T04:06:06.320Z,28.75
2022-11-20T04:08:34.698Z,28.48
2022-11-20T04:11:13.226Z,27.02
2022-11-20T04:13:41.919Z,27.52
2022-11-20T04:16:10.597Z,26.35
2022-11-20T04:18:39.243Z,28.10
2022-11-20T04:21:09.167Z,25.63
2022-11-20T04:23:37.854Z,30.40
2022-11-20T04:26:06.777Z,30.77
2022-11-20T04:28:35.058Z,27.92
2022-11-20T04:31:07.865Z,27.98
2022-11-20T04:33:36.388Z,28.17
2022-11-20T04:36:05.495Z,29.10
2022-11-20T04:38:35.145Z,27.38
2022-11-20T04:41:04.141Z,28.45
2022-11-20T04:43:32.740Z,26.52
2022-11-20T04:46:01.497Z,26.88
2022-11-20T04:48:30.254Z,28.88
2022-11-20T04:50:58.909Z,33.67
2022-11-20T04:53:27.471Z,28.65
2022-11-20T04:56:03.059Z,30.02
2022-11-20T04:58:31.451Z,26.90
2022-11-20T05:01:04.055Z,29.73
2022-11-20T05:03:32.334Z,27.08
2022-11-20T05:06:03.110Z,31.70
2022-11-20T05:08:31.417Z,27.90
2022-11-20T05:11:03.602Z,30.08
2022-11-20T05:13:31.898Z,31.17
2022-11-20T05:16:03.824Z,32.03
2022-11-20T05:18:32.145Z,29.85
2022-11-20T05:21:00.832Z,30.38
2022-11-20T05:23:29.354Z,33.00
2022-11-20T05:25:59.301Z,31.48
2022-11-20T05:28:29.514Z,31.30
2022-11-20T05:30:57.804Z,31.20
2022-11-20T05:33:26.090Z,30.27
2022-11-20T05:35:54.369Z,31.98
2022-11-20T05:38:22.670Z,29.75
2022-11-20T05:40:50.951Z,28.00
2022-11-20T05:43:19.230Z,30.13
2022-11-20T05:45:55.570Z,34.28
2022-11-20T05:48:23.934Z,32.60
2022-11-20T05:50:52.214Z,29.73
2022-11-20T05:53:20.555Z,28.05
2022-11-20T05:55:48.879Z,29.83
2022-11-20T05:58:17.201Z,31.92
2022-11-20T06:00:45.519Z,27.95
2022-11-20T06:03:15.130Z,32.60
2022-11-20T06:05:43.449Z,32.38
2022-11-20T06:08:11.709Z,32.58
2022-11-20T06:10:40.027Z,31.23
2022-11-20T06:13:08.375Z,31.58
2022-11-20T06:15:36.670Z,28.58
2022-11-20T06:18:05.017Z,30.13
2022-11-20T06:20:39.228Z,33.10
2022-11-20T06:23:10.211Z,37.10
2022-11-20T06:25:40.126Z,33.10
2022-11-20T06:28:08.755Z,31.98
2022-11-20T06:30:37.497Z,35.28
2022-11-20T06:33:05.866Z,36.58
2022-11-20T06:35:35.525Z,40.25
2022-11-20T06:38:03.826Z,34.85
2022-11-20T06:40:32.123Z,34.85
2022-11-20T06:43:00.474Z,35.13
2022-11-20T06:45:28.803Z,35.10
2022-11-20T06:47:59.592Z,32.15
2022-11-20T06:50:27.898Z,37.38
2022-11-20T06:52:57.534Z,33.22
2022-11-20T06:55:25.823Z,32.35
2022-11-20T06:57:56.024Z,37.78
2022-11-20T07:00:24.519Z,33.70
2022-11-20T07:02:52.850Z,35.95
2022-11-20T07:05:21.121Z,34.13
2022-11-20T07:07:49.494Z,31.17
2022-11-20T07:10:19.141Z,30.38
2022-11-20T07:12:52.457Z,38.45
2022-11-20T07:15:20.978Z,38.95
2022-11-20T07:17:49.255Z,37.13
2022-11-20T07:20:17.763Z,31.63
2022-11-20T07:22:46.079Z,30.38
2022-11-20T07:25:14.339Z,33.50
2022-11-20T07:27:44.018Z,35.30
2022-11-20T07:30:12.731Z,35.05
2022-11-20T07:32:41.049Z,35.10
2022-11-20T07:35:09.726Z,34.38
2022-11-20T07:37:38.009Z,38.70
2022-11-20T07:40:07.579Z,37.50
2022-11-20T07:42:35.917Z,36.90
2022-11-20T07:45:05.778Z,35.40
2022-11-20T07:47:37.358Z,38.42
2022-11-20T07:50:06.033Z,36.85
2022-11-20T07:52:34.306Z,38.60
2022-11-20T07:55:02.632Z,36.70
2022-11-20T07:57:31.075Z,33.30
2022-11-20T07:59:59.369Z,38.35
2022-11-20T08:02:29.000Z,39.47
2022-11-20T08:04:57.306Z,33.50
2022-11-20T08:07:25.671Z,35.05
2022-11-20T08:09:54.049Z,36.85
2022-11-20T08:12:40.265Z,31.13
2022-11-20T08:15:13.080Z,33.42
2022-11-20T08:17:56.768Z,32.58
2022-11-20T08:20:31.494Z,36.33
2022-11-20T08:23:03.216Z,33.42
2022-11-20T08:25:31.857Z,34.70
2022-11-20T08:28:01.377Z,29.33
2022-11-20T08:30:33.448Z,34.03
2022-11-20T08:33:05.704Z,29.88
2022-11-20T08:35:36.702Z,34.13
2022-11-20T08:38:05.126Z,34.22
2022-11-20T08:40:33.709Z,34.97
2022-11-20T08:43:02.021Z,32.00
2022-11-20T08:45:34.002Z,35.85
2022-11-20T08:48:03.035Z,33.35
2022-11-20T08:50:33.642Z,29.80
2022-11-20T08:53:05.255Z,32.30
2022-11-20T08:55:33.586Z,28.30
2022-11-20T08:58:05.532Z,31.55
2022-11-20T09:00:34.203Z,30.55
2022-11-20T09:03:02.708Z,28.40
2022-11-20T09:05:32.444Z,30.83
2022-11-20T09:08:01.053Z,29.75
2022-11-20T09:10:29.480Z,36.05
2022-11-20T09:12:58.094Z,33.30
2022-11-20T09:15:26.827Z,37.63
2022-11-20T09:17:55.615Z,36.42
2022-11-20T09:20:24.328Z,40.58
2022-11-20T09:22:54.160Z,32.05
2022-11-20T09:25:22.458Z,30.80
2022-11-20T09:27:50.835Z,36.08
2022-11-20T09:30:21.359Z,31.98
2022-11-20T09:32:49.883Z,30.05
2022-11-20T09:35:22.464Z,32.13
2022-11-20T09:37:54.410Z,32.47
2022-11-20T09:40:25.598Z,28.70
2022-11-20T09:42:58.112Z,26.30
2022-11-20T09:45:32.005Z,30.17
2022-11-20T09:48:14.888Z,32.55
2022-11-20T09:50:52.859Z,27.88
2022-11-20T09:53:39.173Z,30.17
2022-11-20T09:56:18.304Z,27.50
2022-11-20T09:59:02.103Z,29.67
2022-11-20T10:01:33.669Z,29.48
2022-11-20T10:04:07.013Z,28.02
2022-11-20T10:06:37.391Z,31.70
2022-11-20T10:09:17.935Z,31.73
2022-11-20T10:11:49.699Z,32.90
2022-11-20T10:14:23.482Z,30.83
2022-11-20T10:16:55.682Z,28.33
2022-11-20T10:19:32.234Z,33.40
2022-11-20T10:22:07.594Z,33.28
2022-11-20T10:24:44.585Z,34.88
2022-11-20T10:27:24.358Z,33.10
2022-11-20T10:29:57.831Z,35.67
2022-11-20T10:32:30.306Z,33.50
2022-11-20T10:35:01.299Z,36.92
2022-11-20T10:37:30.380Z,36.90
2022-11-20T10:40:03.439Z,38.33
2022-11-20T10:42:34.520Z,66.38
2022-11-20T10:45:06.981Z,52.13
2022-11-20T10:47:35.537Z,40.15
2022-11-20T10:50:05.186Z,39.10
2022-11-20T10:52:37.629Z,42.30
2022-11-20T10:55:12.841Z,39.92
2022-11-20T10:57:48.575Z,38.38
2022-11-20T11:00:18.110Z,42.97
2022-11-20T11:02:53.316Z,37.65
2022-11-20T11:05:30.473Z,40.78
2022-11-20T11:07:59.823Z,41.05
2022-11-20T11:10:35.965Z,34.33
2022-11-20T11:13:05.916Z,34.88
2022-11-20T11:15:42.098Z,35.80
2022-11-20T11:18:13.990Z,38.22
2022-11-20T11:20:54.240Z,36.97
2022-11-20T11:23:34.010Z,40.10
2022-11-20T11:26:05.133Z,37.92
2022-11-20T11:28:34.314Z,34.63
2022-11-20T11:31:03.423Z,36.05
2022-11-20T11:33:34.504Z,35.50
2022-11-20T11:36:14.788Z,31.23
2022-11-20T11:38:47.336Z,32.53
2022-11-20T11:41:20.731Z,33.95
2022-11-20T11:44:12.928Z,35.28
2022-11-20T11:46:43.499Z,33.63
2022-11-20T11:49:19.525Z,32.15
2022-11-20T11:51:52.910Z,30.58
2022-11-20T11:54:26.181Z,30.77
2022-11-20T11:56:57.535Z,34.53
2022-11-20T11:59:28.668Z,29.40
2022-11-20T12:02:02.488Z,31.13
2022-11-20T12:04:41.348Z,32.30
2022-11-20T12:07:44.278Z,37.45
2022-11-20T12:10:05.174Z,33.72
2022-11-20T12:12:39.437Z,34.75
2022-11-20T12:15:16.788Z,30.38
2022-11-20T12:17:59.823Z,29.55
2022-11-20T12:20:35.663Z,31.85
2022-11-20T12:23:09.910Z,60.47
2022-11-20T12:25:41.740Z,55.10
2022-11-20T12:28:35.110Z,33.67
2022-11-20T12:31:21.678Z,29.25
2022-11-20T12:33:57.289Z,29.40
2022-11-20T12:36:32.395Z,34.40
2022-11-20T12:39:13.372Z,29.95
2022-11-20T12:42:07.095Z,35.78
2022-11-20T12:45:00.739Z,31.67
2022-11-20T12:47:38.305Z,33.78
2022-11-20T12:50:14.453Z,48.47
2022-11-20T12:52:50.968Z,32.30
2022-11-20T12:55:27.613Z,43.08
2022-11-20T12:58:02.957Z,32.13
2022-11-20T13:00:36.665Z,28.92
2022-11-20T13:03:24.491Z,35.22
2022-11-20T13:06:00.455Z,32.75
2022-11-20T13:08:32.996Z,31.95
2022-11-20T13:11:07.301Z,29.65
2022-11-20T13:13:40.392Z,35.83
2022-11-20T13:16:14.759Z,30.90
2022-11-20T13:18:46.230Z,31.70
2022-11-20T13:21:23.113Z,28.60
2022-11-20T13:24:02.567Z,27.05
2022-11-20T13:26:44.459Z,31.48
2022-11-20T13:29:19.533Z,28.33
2022-11-20T13:31:57.278Z,31.63
2022-11-20T13:34:31.560Z,27.42
2022-11-20T13:37:05.562Z,27.08
2022-11-20T13:39:35.770Z,31.50
2022-11-20T13:42:26.587Z,26.33
2022-11-20T13:44:56.947Z,27.33
2022-11-20T13:47:27.245Z,28.55
2022-11-20T13:49:58.038Z,28.35
2022-11-20T13:52:33.452Z,34.80
2022-11-20T13:55:10.013Z,27.83
2022-11-20T13:57:49.635Z,23.13
2022-11-20T14:00:21.707Z,23.27
2022-11-20T14:03:02.257Z,26.35
2022-11-20T14:05:39.924Z,24.55
2022-11-20T14:08:14.155Z,21.90
2022-11-20T14:10:43.489Z,22.80
2022-11-20T14:13:14.022Z,28.08
2022-11-20T14:15:45.215Z,26.10
2022-11-20T14:18:24.890Z,23.33
2022-11-20T14:20:56.605Z,22.83
2022-11-20T14:23:30.488Z,25.85
2022-11-20T14:26:04.220Z,26.38
2022-11-20T14:28:33.885Z,22.88
2022-11-20T14:31:02.391Z,27.30
2022-11-20T14:33:35.653Z,55.15
2022-11-20T14:36:06.526Z,28.80
2022-11-20T14:38:38.664Z,26.15
2022-11-20T14:41:14.705Z,23.17
2022-11-20T14:43:52.347Z,28.48
2022-11-20T14:46:22.508Z,24.27
2022-11-20T14:48:54.869Z,24.45
2022-11-20T14:51:33.596Z,25.25
2022-11-20T14:54:13.279Z,22.23
2022-11-20T14:56:42.435Z,26.00
2022-11-20T14:59:12.108Z,25.13
2022-11-20T15:01:41.108Z,25.90
2022-11-20T15:04:12.646Z,25.05
2022-11-20T15:06:52.952Z,24.38
2022-11-20T15:09:21.963Z,25.10
2022-11-20T15:11:56.275Z,23.83
2022-11-20T15:14:25.571Z,24.52
2022-11-20T15:17:04.110Z,24.52
2022-11-20T15:19:37.197Z,25.40
2022-11-20T15:22:07.628Z,31.40
2022-11-20T15:24:36.998Z,31.35
2022-11-20T15:27:07.649Z,28.75
2022-11-20T15:29:37.667Z,27.77
2022-11-20T15:32:13.184Z,28.73
2022-11-20T15:34:43.417Z,25.85
2022-11-20T15:37:14.143Z,25.60
2022-11-20T15:39:42.737Z,27.50
2022-11-20T15:42:19.039Z,25.83
2022-11-20T15:44:53.728Z,23.92
2022-11-20T15:47:28.590Z,23.50
2022-11-20T15:49:57.075Z,23.52
2022-11-20T15:52:40.358Z,28.73
2022-11-20T15:55:20.155Z,28.77
2022-11-20T15:57:50.250Z,28.33
2022-11-20T16:00:25.154Z,29.55
2022-11-20T16:03:03.083Z,51.20
2022-11-20T16:05:42.795Z,35.92
2022-11-20T16:08:13.064Z,26.10
2022-11-20T16:10:51.158Z,104.25
2022-11-20T16:13:48.069Z,40.83
2022-11-20T16:16:22.445Z,42.17
2022-11-20T16:18:52.901Z,37.35
2022-11-20T16:21:28.417Z,30.95
2022-11-20T16:24:02.067Z,28.17
2022-11-20T16:26:33.411Z,34.95
2022-11-20T16:29:03.671Z,35.47
2022-11-20T16:31:32.899Z,31.38
2022-11-20T16:34:05.850Z,28.02
2022-11-20T16:36:42.908Z,25.27
2022-11-20T16:39:17.794Z,32.78
2022-11-20T16:41:50.973Z,28.63
2022-11-20T16:44:30.979Z,27.83
2022-11-20T16:47:01.789Z,24.70
2022-11-20T16:49:33.111Z,26.90
2022-11-20T16:52:02.883Z,27.35
2022-11-20T16:54:34.644Z,27.48
2022-11-20T16:57:03.811Z,24.13
2022-11-20T16:59:44.180Z,32.53
2022-11-20T17:02:23.471Z,92.15
2022-11-20T17:04:58.695Z,92.32
2022-11-20T17:07:29.444Z,37.65
2022-11-20T17:10:02.910Z,32.78
2022-11-20T17:12:32.243Z,28.30
2022-11-20T17:15:02.512Z,24.30
2022-11-20T17:17:35.206Z,25.98
2022-11-20T17:20:03.706Z,28.95
2022-11-20T17:22:38.350Z,25.83
2022-11-20T17:25:11.158Z,31.55
2022-11-20T17:27:40.062Z,30.23
2022-11-20T17:30:13.443Z,28.60
2022-11-20T17:32:45.611Z,28.00
2022-11-20T17:35:15.264Z,27.33
2022-11-20T17:37:51.436Z,26.33
2022-11-20T17:40:33.800Z,26.30
2022-11-20T17:43:08.444Z,28.08
2022-11-20T17:45:42.489Z,41.72
2022-11-20T17:48:14.364Z,55.25
2022-11-20T17:50:45.184Z,41.83
2022-11-20T17:53:15.328Z,34.83
2022-11-20T17:56:03.310Z,44.53
2022-11-20T17:58:32.577Z,34.92
2022-11-20T18:01:06.281Z,25.70
2022-11-20T18:03:40.207Z,28.35
2022-11-20T18:06:12.026Z,29.45
2022-11-20T18:08:41.860Z,29.30
2022-11-20T18:11:17.716Z,26.98
2022-11-20T18:14:09.120Z,25.83
2022-11-20T18:16:43.699Z,21.67
2022-11-20T18:19:17.412Z,21.45
2022-11-20T18:21:48.292Z,20.23
2022-11-20T18:24:19.867Z,21.77
2022-11-20T18:26:54.946Z,24.15
2022-11-20T18:29:24.091Z,16.05
2022-11-20T18:31:53.105Z,21.33
2022-11-20T18:34:24.006Z,18.95
2022-11-20T18:36:53.833Z,13.30
2022-11-20T18:39:23.537Z,14.25
2022-11-20T18:42:11.851Z,15.38
2022-11-20T18:44:53.550Z,19.80
2022-11-20T18:47:23.968Z,18.23
2022-11-20T18:49:53.753Z,18.42
2022-11-20T18:52:23.378Z,18.30
2022-11-20T18:54:52.587Z,11.05
2022-11-20T18:57:23.183Z,12.70
2022-11-20T18:59:54.322Z,11.02
2022-11-20T19:02:26.950Z,8.00
2022-11-20T19:04:56.068Z,16.95
2022-11-20T19:07:24.905Z,11.90
2022-11-20T19:09:54.251Z,9.88
2022-11-20T19:12:23.914Z,9.15
2022-11-20T19:14:53.050Z,9.35
2022-11-20T19:17:21.354Z,12.43
2022-11-20T19:19:50.373Z,11.32
2022-11-20T19:22:18.802Z,11.52
2022-11-20T19:24:47.101Z,10.13
2022-11-20T19:27:15.448Z,9.48
2022-11-20T19:29:45.134Z,9.90
2022-11-20T19:32:13.465Z,8.10
2022-11-20T19:34:41.820Z,10.60
2022-11-20T19:37:10.120Z,10.65
2022-11-20T19:39:38.650Z,11.82
2022-11-20T19:42:07.114Z,7.30
2022-11-20T19:44:35.642Z,9.10
2022-11-20T19:47:11.571Z,11.73
2022-11-20T19:49:42.442Z,11.77
2022-11-20T19:52:10.762Z,9.23
2022-11-20T19:54:39.224Z,8.93
2022-11-20T19:57:07.612Z,8.93
2022-11-20T19:59:35.949Z,8.18
2022-11-20T20:02:05.669Z,7.55
2022-11-20T20:04:34.023Z,7.07
2022-11-20T20:07:03.786Z,9.52
2022-11-20T20:09:34.140Z,7.00
2022-11-20T20:12:02.474Z,9.10
2022-11-20T20:14:31.942Z,7.28
2022-11-20T20:17:00.249Z,6.95
2022-11-20T20:19:29.882Z,7.32
2022-11-20T20:21:58.345Z,9.35
2022-11-20T20:24:26.742Z,11.38
2022-11-20T20:26:58.115Z,7.60
2022-11-20T20:29:26.860Z,5.57
2022-11-20T20:31:55.175Z,6.40
2022-11-20T20:34:23.818Z,6.60
2022-11-20T20:36:53.461Z,7.35
2022-11-20T20:39:21.924Z,6.03
2022-11-20T20:41:50.926Z,5.90
2022-11-20T20:44:33.227Z,5.80
2022-11-20T20:47:01.749Z,4.75
2022-11-20T20:49:30.064Z,8.07
2022-11-20T20:51:59.771Z,4.55
2022-11-20T20:54:33.053Z,5.13
2022-11-20T20:57:02.643Z,5.50
2022-11-20T20:59:30.979Z,5.78
2022-11-20T21:01:59.389Z,5.82
2022-11-20T21:04:27.781Z,5.85
2022-11-20T21:06:56.117Z,3.97
2022-11-20T21:09:25.958Z,4.55
2022-11-20T21:11:54.581Z,4.50
2022-11-20T21:14:23.393Z,5.20
2022-11-20T21:16:51.939Z,4.18
2022-11-20T21:19:20.227Z,5.32
2022-11-20T21:21:59.585Z,5.80
2022-11-20T21:24:29.985Z,3.50
2022-11-20T21:26:58.793Z,3.67
2022-11-20T21:29:28.274Z,3.30
2022-11-20T21:31:56.817Z,5.45
2022-11-20T21:34:26.111Z,3.67
2022-11-20T21:36:54.671Z,3.42
2022-11-20T21:39:23.010Z,4.57
2022-11-20T21:41:52.804Z,3.42
2022-11-20T21:44:37.377Z,6.88
2022-11-20T21:47:12.537Z,3.63
2022-11-20T21:49:42.891Z,3.08
2022-11-20T21:52:11.218Z,3.13
2022-11-20T21:54:39.568Z,3.30
2022-11-20T21:57:09.282Z,4.50
2022-11-20T21:59:37.713Z,5.85
2022-11-20T22:02:07.352Z,4.63
2022-11-20T22:04:36.792Z,2.50
2022-11-20T22:07:07.013Z,2.83
2022-11-20T22:09:35.641Z,3.25
2022-11-20T22:12:03.953Z,4.85
2022-11-20T22:14:33.688Z,3.30
2022-11-20T22:17:01.994Z,5.57
2022-11-20T22:19:30.328Z,7.32
2022-11-20T22:21:58.665Z,18.90
2022-11-20T22:24:27.229Z,13.70
2022-11-20T22:26:55.757Z,13.70
2022-11-20T22:29:24.090Z,15.40
2022-11-20T22:31:54.593Z,8.82
2022-11-20T22:34:23.232Z,20.80
2022-11-20T22:36:51.912Z,9.85
2022-11-20T22:39:22.810Z,8.73
2022-11-20T22:41:51.398Z,35.97
2022-11-20T22:44:19.947Z,14.80
2022-11-20T22:46:48.728Z,13.57
2022-11-20T22:49:18.687Z,27.00
2022-11-20T22:51:47.105Z,7.25
2022-11-20T22:54:15.764Z,5.07
2022-11-20T22:56:45.034Z,5.95
2022-11-20T22:59:13.577Z,6.72
2022-11-20T23:01:42.004Z,4.55
2022-11-20T23:04:12.122Z,4.43
2022-11-20T23:06:41.940Z,5.75
2022-11-20T23:09:12.781Z,3.83
2022-11-20T23:11:41.186Z,3.90
2022-11-20T23:14:12.699Z,4.20
2022-11-20T23:16:41.460Z,7.55
2022-11-20T23:19:10.761Z,9.02
2022-11-20T23:21:40.067Z,6.97
2022-11-20T23:24:10.858Z,3.78
2022-11-20T23:26:40.284Z,6.93
2022-11-20T23:29:09.230Z,3.47
2022-11-20T23:31:37.698Z,6.18
2022-11-20T23:34:06.410Z,3.90
2022-11-20T23:36:34.881Z,5.45
2022-11-20T23:39:03.372Z,4.25
2022-11-20T23:41:33.363Z,4.95
2022-11-20T23:44:01.944Z,5.60
2022-11-20T23:46:30.444Z,7.53
2022-11-20T23:48:59.031Z,4.30
2022-11-20T23:51:27.567Z,6.72
2022-11-20T23:53:58.345Z,6.88
2022-11-20T23:56:30.392Z,8.73
2022-11-20T23:59:00.418Z,6.50
